createdAt,value
2019-05-07T00:00:43.582Z,61.42
2019-05-07T00:01:42.317Z,62.34
2019-05-07T00:02:42.808Z,62.55
2019-05-07T00:03:42.118Z,62.85
2019-05-07T00:04:46.493Z,63.47
2019-05-07T00:05:42.818Z,63.68
2019-05-07T00:06:43.436Z,63.37
2019-05-07T00:07:42.501Z,64.09
2019-05-07T00:08:44.610Z,64.22
2019-05-07T00:09:43.008Z,64.12
2019-05-07T00:10:42.449Z,65.69
2019-05-07T00:11:42.585Z,65.69
2019-05-07T00:12:43.125Z,66.44
2019-05-07T00:13:44.120Z,66.75
2019-05-07T00:14:43.014Z,66.64
2019-05-07T00:15:47.362Z,66.54
2019-05-07T00:16:42.244Z,67.16
2019-05-07T00:17:42.906Z,67.06
2019-05-07T00:18:42.946Z,67.68
2019-05-07T00:19:43.191Z,68.29
2019-05-07T00:20:42.292Z,67.98
2019-05-07T00:21:42.273Z,67.91
2019-05-07T00:22:41.979Z,68.43
2019-05-07T00:23:43.312Z,68.84
2019-05-07T00:24:42.712Z,69.25
2019-05-07T00:25:42.183Z,69.49
2019-05-07T00:26:46.227Z,70.00
2019-05-07T00:27:42.718Z,69.79
2019-05-07T00:28:43.228Z,70.00
2019-05-07T00:29:42.890Z,69.59
2019-05-07T00:30:42.457Z,70.00
2019-05-07T00:31:41.972Z,69.73
2019-05-07T00:32:42.421Z,69.62
2019-05-07T00:33:43.283Z,70.14
2019-05-07T00:34:42.470Z,70.04
2019-05-07T00:35:42.873Z,70.14
2019-05-07T00:36:42.089Z,69.93
2019-05-07T00:37:46.105Z,70.34
2019-05-07T00:38:42.721Z,70.14
2019-05-07T00:39:42.396Z,70.65
2019-05-07T00:40:42.558Z,70.86
2019-05-07T00:41:42.687Z,70.65
2019-05-07T00:42:42.128Z,70.14
2019-05-07T00:43:42.881Z,70.14
2019-05-07T00:44:42.245Z,70.04
2019-05-07T00:45:42.097Z,69.93
2019-05-07T00:46:42.723Z,70.65
2019-05-07T00:47:42.561Z,70.55
2019-05-07T00:48:45.979Z,70.37
2019-05-07T00:49:42.585Z,70.76
2019-05-07T00:50:42.061Z,70.04
2019-05-07T00:51:42.436Z,69.73
2019-05-07T00:52:42.886Z,69.73
2019-05-07T00:53:42.390Z,69.93
2019-05-07T00:54:42.233Z,70.45
2019-05-07T00:55:42.297Z,70.24
2019-05-07T00:56:42.903Z,70.55
2019-05-07T00:57:42.824Z,70.45
2019-05-07T00:58:42.800Z,70.86
2019-05-07T00:59:45.865Z,71.06
2019-05-07T01:00:42.038Z,70.96
2019-05-07T01:01:43.057Z,70.45
2019-05-07T01:02:42.950Z,70.96
2019-05-07T01:03:42.442Z,71.41
2019-05-07T01:04:42.263Z,71.69
2019-05-07T01:05:43.002Z,71.69
2019-05-07T01:06:42.435Z,71.41
2019-05-07T01:07:41.940Z,71.30
2019-05-07T01:08:42.906Z,71.92
2019-05-07T01:09:42.952Z,72.13
2019-05-07T01:10:45.729Z,72.13
2019-05-07T01:11:42.714Z,72.03
2019-05-07T01:12:42.341Z,72.44
2019-05-07T01:13:42.952Z,72.54
2019-05-07T01:14:42.020Z,72.54
2019-05-07T01:15:42.763Z,72.44
2019-05-07T01:16:42.125Z,72.54
2019-05-07T01:17:42.525Z,72.75
2019-05-07T01:18:42.084Z,72.44
2019-05-07T01:19:42.329Z,72.64
2019-05-07T01:20:42.248Z,72.85
2019-05-07T01:21:45.604Z,72.99
2019-05-07T01:22:42.460Z,73.05
2019-05-07T01:23:42.590Z,73.19
2019-05-07T01:24:42.804Z,73.30
2019-05-07T01:25:42.832Z,73.19
2019-05-07T01:26:42.583Z,73.19
2019-05-07T01:27:42.571Z,73.09
2019-05-07T01:28:42.145Z,73.05
2019-05-07T01:29:40.490Z,73.05
2019-05-07T01:30:40.489Z,72.96
2019-05-07T01:31:40.485Z,72.85
2019-05-07T01:32:45.476Z,73.26
2019-05-07T01:33:42.399Z,72.96
2019-05-07T01:34:40.432Z,72.75
2019-05-07T01:35:42.358Z,72.85
2019-05-07T01:36:42.600Z,72.96
2019-05-07T01:37:42.195Z,73.05
2019-05-07T01:38:42.560Z,73.26
2019-05-07T01:39:42.208Z,73.36
2019-05-07T01:40:42.651Z,73.81
2019-05-07T01:41:42.002Z,73.47
2019-05-07T01:42:42.392Z,73.47
2019-05-07T01:43:45.351Z,73.60
2019-05-07T01:44:42.017Z,73.30
2019-05-07T01:45:46.472Z,73.47
2019-05-07T01:46:42.232Z,73.30
2019-05-07T01:47:42.346Z,73.40
2019-05-07T01:48:40.273Z,73.81
2019-05-07T01:49:42.155Z,73.60
2019-05-07T01:50:40.261Z,74.12
2019-05-07T01:51:42.242Z,74.33
2019-05-07T01:52:42.587Z,74.36
2019-05-07T01:53:40.217Z,74.67
2019-05-07T01:54:47.323Z,74.46
2019-05-07T01:55:42.623Z,74.36
2019-05-07T01:56:42.603Z,74.57
2019-05-07T01:57:42.123Z,74.46
2019-05-07T01:58:42.328Z,74.46
2019-05-07T01:59:42.497Z,74.77
2019-05-07T02:00:42.338Z,75.12
2019-05-07T02:01:42.727Z,75.74
2019-05-07T02:02:40.115Z,76.67
2019-05-07T02:03:42.024Z,76.25
2019-05-07T02:04:40.092Z,76.15
2019-05-07T02:05:45.141Z,76.04
2019-05-07T02:06:40.081Z,76.18
2019-05-07T02:07:40.069Z,76.08
2019-05-07T02:08:42.114Z,76.50
2019-05-07T02:09:42.342Z,76.39
2019-05-07T02:10:40.024Z,77.56
2019-05-07T02:11:42.124Z,77.36
2019-05-07T02:12:40.003Z,77.56
2019-05-07T02:13:41.977Z,77.25
2019-05-07T02:14:42.130Z,77.15
2019-05-07T02:15:39.967Z,77.25
2019-05-07T02:16:44.994Z,77.56
2019-05-07T02:17:39.950Z,77.46
2019-05-07T02:18:42.272Z,77.25
2019-05-07T02:19:42.373Z,78.08
2019-05-07T02:20:39.917Z,77.98
2019-05-07T02:21:42.153Z,77.67
2019-05-07T02:22:39.892Z,77.67
2019-05-07T02:23:39.880Z,77.67
2019-05-07T02:24:39.868Z,77.77
2019-05-07T02:25:41.852Z,77.67
2019-05-07T02:26:39.878Z,77.87
2019-05-07T02:27:44.870Z,78.05
2019-05-07T02:28:39.853Z,77.22
2019-05-07T02:29:39.826Z,77.42
2019-05-07T02:30:39.802Z,77.42
2019-05-07T02:31:39.799Z,77.32
2019-05-07T02:32:42.947Z,77.32
2019-05-07T02:33:43.092Z,76.50
2019-05-07T02:34:39.774Z,76.50
2019-05-07T02:35:39.747Z,76.29
2019-05-07T02:36:42.951Z,76.29
2019-05-07T02:37:48.640Z,77.32
2019-05-07T02:38:45.755Z,77.11
2019-05-07T02:39:39.703Z,77.36
2019-05-07T02:40:39.689Z,77.25
2019-05-07T02:41:39.677Z,77.01
2019-05-07T02:42:39.683Z,76.50
2019-05-07T02:43:39.654Z,76.29
2019-05-07T02:44:39.645Z,76.60
2019-05-07T02:45:39.637Z,76.18
2019-05-07T02:46:39.630Z,75.26
2019-05-07T02:47:39.629Z,76.18
2019-05-07T02:48:42.561Z,75.46
2019-05-07T02:49:44.623Z,75.43
2019-05-07T02:50:39.575Z,75.63
2019-05-07T02:51:43.155Z,75.57
2019-05-07T02:52:39.564Z,75.87
2019-05-07T02:53:39.549Z,75.57
2019-05-07T02:54:39.530Z,75.46
2019-05-07T02:55:39.517Z,75.77
2019-05-07T02:56:42.987Z,75.67
2019-05-07T02:57:39.510Z,76.53
2019-05-07T02:58:39.486Z,76.32
2019-05-07T02:59:39.477Z,76.73
2019-05-07T03:00:44.496Z,77.56
2019-05-07T03:01:39.451Z,77.46
2019-05-07T03:02:39.456Z,77.15
2019-05-07T03:03:39.432Z,77.56
2019-05-07T03:04:39.428Z,77.39
2019-05-07T03:05:39.408Z,78.01
2019-05-07T03:06:39.398Z,78.01
2019-05-07T03:07:42.527Z,78.01
2019-05-07T03:08:39.376Z,77.70
2019-05-07T03:09:42.807Z,77.81
2019-05-07T03:10:39.353Z,77.91
2019-05-07T03:11:44.368Z,77.91
2019-05-07T03:12:39.346Z,77.91
2019-05-07T03:13:39.319Z,77.81
2019-05-07T03:14:39.310Z,77.91
2019-05-07T03:15:39.301Z,77.70
2019-05-07T03:16:44.269Z,77.70
2019-05-07T03:17:42.919Z,77.84
2019-05-07T03:18:39.263Z,78.11
2019-05-07T03:19:39.277Z,78.56
2019-05-07T03:20:39.252Z,78.11
2019-05-07T03:21:39.232Z,78.15
2019-05-07T03:22:44.250Z,78.11
2019-05-07T03:23:39.208Z,78.15
2019-05-07T03:24:39.196Z,78.05
2019-05-07T03:25:39.187Z,78.42
2019-05-07T03:26:39.177Z,78.42
2019-05-07T03:27:39.164Z,78.42
2019-05-07T03:28:39.162Z,78.56
2019-05-07T03:29:39.163Z,77.91
2019-05-07T03:30:39.131Z,77.84
2019-05-07T03:31:39.137Z,77.70
2019-05-07T03:32:40.483Z,78.01
2019-05-07T03:33:47.290Z,77.84
2019-05-07T03:34:39.088Z,77.60
2019-05-07T03:35:39.092Z,77.70
2019-05-07T03:36:39.232Z,78.01
2019-05-07T03:37:39.067Z,78.11
2019-05-07T03:38:39.059Z,77.91
2019-05-07T03:39:39.050Z,78.01
2019-05-07T03:40:39.020Z,78.11
2019-05-07T03:41:39.014Z,77.91
2019-05-07T03:42:38.996Z,78.01
2019-05-07T03:43:39.006Z,77.60
2019-05-07T03:44:44.703Z,77.70
2019-05-07T03:45:38.971Z,78.01
2019-05-07T03:46:53.152Z,78.11
2019-05-07T03:47:39.939Z,78.11
2019-05-07T03:48:38.945Z,77.91
2019-05-07T03:49:38.916Z,78.01
2019-05-07T03:50:38.916Z,78.05
2019-05-07T03:51:38.894Z,78.56
2019-05-07T03:52:38.881Z,78.88
2019-05-07T03:53:38.895Z,79.43
2019-05-07T03:54:38.865Z,80.05
2019-05-07T03:55:44.886Z,79.74
2019-05-07T03:56:38.838Z,79.84
2019-05-07T03:57:38.825Z,80.05
2019-05-07T03:58:38.828Z,79.47
2019-05-07T03:59:38.816Z,80.05
2019-05-07T04:00:38.794Z,80.36
2019-05-07T04:01:38.779Z,80.36
2019-05-07T04:02:38.773Z,80.15
2019-05-07T04:03:38.758Z,79.63
2019-05-07T04:04:38.765Z,79.94
2019-05-07T04:05:38.765Z,79.74
2019-05-07T04:06:43.748Z,79.84
2019-05-07T04:07:38.714Z,80.26
2019-05-07T04:08:38.702Z,80.15
2019-05-07T04:09:38.702Z,80.15
2019-05-07T04:10:38.684Z,79.94
2019-05-07T04:11:38.670Z,79.63
2019-05-07T04:12:38.656Z,79.74
2019-05-07T04:13:38.647Z,79.74
2019-05-07T04:14:38.644Z,79.94
2019-05-07T04:15:38.628Z,79.63
2019-05-07T04:16:38.613Z,79.74
2019-05-07T04:17:43.632Z,79.49
2019-05-07T04:18:38.591Z,79.94
2019-05-07T04:19:38.592Z,79.39
2019-05-07T04:20:39.453Z,78.88
2019-05-07T04:21:38.556Z,78.77
2019-05-07T04:22:38.553Z,78.36
2019-05-07T04:23:38.538Z,78.56
2019-05-07T04:24:38.533Z,78.01
2019-05-07T04:25:38.509Z,78.22
2019-05-07T04:26:38.499Z,78.05
2019-05-07T04:27:38.495Z,78.25
2019-05-07T04:28:43.786Z,78.22
2019-05-07T04:29:38.497Z,77.50
2019-05-07T04:30:38.453Z,77.70
2019-05-07T04:31:38.445Z,77.70
2019-05-07T04:32:38.433Z,78.11
2019-05-07T04:33:38.425Z,78.08
2019-05-07T04:34:38.423Z,78.18
2019-05-07T04:35:38.401Z,77.36
2019-05-07T04:36:38.397Z,77.77
2019-05-07T04:37:38.377Z,76.84
2019-05-07T04:38:38.376Z,76.53
2019-05-07T04:39:43.412Z,76.73
2019-05-07T04:40:38.367Z,76.73
2019-05-07T04:41:38.333Z,76.22
2019-05-07T04:42:38.320Z,76.43
2019-05-07T04:43:38.310Z,76.53
2019-05-07T04:44:38.326Z,75.87
2019-05-07T04:45:38.305Z,75.67
2019-05-07T04:46:38.275Z,75.87
2019-05-07T04:47:46.369Z,76.18
2019-05-07T04:48:39.253Z,76.50
2019-05-07T04:49:38.280Z,75.26
2019-05-07T04:50:47.353Z,76.22
2019-05-07T04:51:38.225Z,76.22
2019-05-07T04:52:38.214Z,76.70
2019-05-07T04:53:38.202Z,76.50
2019-05-07T04:54:38.194Z,76.29
2019-05-07T04:55:38.199Z,76.08
2019-05-07T04:56:38.164Z,76.50
2019-05-07T04:57:38.156Z,75.46
2019-05-07T04:58:38.141Z,75.84
2019-05-07T04:59:38.131Z,75.84
2019-05-07T05:00:38.132Z,75.74
2019-05-07T05:01:43.665Z,76.39
2019-05-07T05:02:38.101Z,75.87
2019-05-07T05:03:39.268Z,76.39
2019-05-07T05:04:38.080Z,76.18
2019-05-07T05:05:38.074Z,75.98
2019-05-07T05:06:38.052Z,76.35
2019-05-07T05:07:38.045Z,76.46
2019-05-07T05:08:38.034Z,76.04
2019-05-07T05:09:38.027Z,76.04
2019-05-07T05:10:38.028Z,75.84
2019-05-07T05:11:37.997Z,76.04
2019-05-07T05:12:43.117Z,75.43
2019-05-07T05:13:37.994Z,75.39
2019-05-07T05:14:37.965Z,75.70
2019-05-07T05:15:37.963Z,76.01
2019-05-07T05:16:37.942Z,75.70
2019-05-07T05:17:49.715Z,75.39
2019-05-07T05:18:38.921Z,75.81
2019-05-07T05:19:37.919Z,75.49
2019-05-07T05:20:37.924Z,75.29
2019-05-07T05:21:37.905Z,75.09
2019-05-07T05:22:37.875Z,75.39
2019-05-07T05:23:42.886Z,75.26
2019-05-07T05:24:37.850Z,75.36
2019-05-07T05:25:37.841Z,75.15
2019-05-07T05:26:37.839Z,75.05
2019-05-07T05:27:37.817Z,75.15
2019-05-07T05:28:37.804Z,75.05
2019-05-07T05:29:37.797Z,75.05
2019-05-07T05:30:37.784Z,75.15
2019-05-07T05:31:37.794Z,75.05
2019-05-07T05:32:37.761Z,75.46
2019-05-07T05:33:37.779Z,75.87
2019-05-07T05:34:42.764Z,75.77
2019-05-07T05:35:37.729Z,75.56
2019-05-07T05:36:37.732Z,75.87
2019-05-07T05:37:37.713Z,75.43
2019-05-07T05:38:37.697Z,74.71
2019-05-07T05:39:37.679Z,74.53
2019-05-07T05:40:37.689Z,74.50
2019-05-07T05:41:38.075Z,74.50
2019-05-07T05:42:37.650Z,74.71
2019-05-07T05:43:37.636Z,74.08
2019-05-07T05:44:37.637Z,73.95
2019-05-07T05:45:42.798Z,74.16
2019-05-07T05:46:37.612Z,73.54
2019-05-07T05:47:37.592Z,73.23
2019-05-07T05:48:37.596Z,73.54
2019-05-07T05:49:37.569Z,73.09
2019-05-07T05:50:37.560Z,72.99
2019-05-07T05:51:37.568Z,73.33
2019-05-07T05:52:37.538Z,72.99
2019-05-07T05:53:37.530Z,72.99
2019-05-07T05:54:37.528Z,72.64
2019-05-07T05:55:37.512Z,72.75
2019-05-07T05:56:42.749Z,71.79
2019-05-07T05:57:37.478Z,72.00
2019-05-07T05:58:37.466Z,70.52
2019-05-07T05:59:49.080Z,70.49
2019-05-07T06:00:38.446Z,68.81
2019-05-07T06:01:37.452Z,68.54
2019-05-07T06:02:37.427Z,68.95
2019-05-07T06:03:37.415Z,69.46
2019-05-07T06:04:37.401Z,68.74
2019-05-07T06:05:37.389Z,68.64
2019-05-07T06:06:37.403Z,69.29
2019-05-07T06:07:42.796Z,69.90
2019-05-07T06:08:37.367Z,69.77
2019-05-07T06:09:37.389Z,70.28
2019-05-07T06:10:37.333Z,68.51
2019-05-07T06:11:37.331Z,68.30
2019-05-07T06:12:37.309Z,68.61
2019-05-07T06:13:37.296Z,68.19
2019-05-07T06:14:37.295Z,68.71
2019-05-07T06:15:37.274Z,68.61
2019-05-07T06:16:37.289Z,67.86
2019-05-07T06:17:37.281Z,67.89
2019-05-07T06:18:42.266Z,68.19
2019-05-07T06:19:37.249Z,67.89
2019-05-07T06:20:37.222Z,68.74
2019-05-07T06:21:37.204Z,68.51
2019-05-07T06:22:37.226Z,68.61
2019-05-07T06:23:37.185Z,68.61
2019-05-07T06:24:37.173Z,68.30
2019-05-07T06:25:37.175Z,67.99
2019-05-07T06:26:37.151Z,68.19
2019-05-07T06:27:37.158Z,67.89
2019-05-07T06:28:37.162Z,67.86
2019-05-07T06:29:42.697Z,67.14
2019-05-07T06:30:37.117Z,66.52
2019-05-07T06:31:37.099Z,66.52
2019-05-07T06:32:37.123Z,65.95
2019-05-07T06:33:37.081Z,65.03
2019-05-07T06:34:37.066Z,64.72
2019-05-07T06:35:37.049Z,64.28
2019-05-07T06:36:37.040Z,63.64
2019-05-07T06:37:37.041Z,63.09
2019-05-07T06:38:37.036Z,63.20
2019-05-07T06:39:37.008Z,62.71
2019-05-07T06:40:42.413Z,62.61
2019-05-07T06:41:36.995Z,62.51
2019-05-07T06:42:36.981Z,61.76
2019-05-07T06:43:36.971Z,61.11
2019-05-07T06:44:36.954Z,61.32
2019-05-07T06:45:36.941Z,61.11
2019-05-07T06:46:38.717Z,59.96
2019-05-07T06:47:36.943Z,61.16
2019-05-07T06:48:42.436Z,60.85
2019-05-07T06:49:37.891Z,60.85
2019-05-07T06:50:36.882Z,59.53
2019-05-07T06:51:42.059Z,60.58
2019-05-07T06:52:36.879Z,61.22
2019-05-07T06:53:36.850Z,61.25
2019-05-07T06:54:36.837Z,61.35
2019-05-07T06:55:36.829Z,61.11
2019-05-07T06:56:36.818Z,60.47
2019-05-07T06:57:36.814Z,60.50
2019-05-07T06:58:36.792Z,61.11
2019-05-07T06:59:36.784Z,61.01
2019-05-07T07:00:36.766Z,61.52
2019-05-07T07:01:36.758Z,61.63
2019-05-07T07:02:42.019Z,61.93
2019-05-07T07:03:36.741Z,61.60
2019-05-07T07:04:36.779Z,61.40
2019-05-07T07:05:36.710Z,61.19
2019-05-07T07:06:36.699Z,61.04
2019-05-07T07:07:37.520Z,61.55
2019-05-07T07:08:36.695Z,61.86
2019-05-07T07:09:36.673Z,61.96
2019-05-07T07:10:36.654Z,61.86
2019-05-07T07:11:36.679Z,61.76
2019-05-07T07:12:36.635Z,61.76
2019-05-07T07:13:42.704Z,62.37
2019-05-07T07:14:36.607Z,62.45
2019-05-07T07:15:36.607Z,62.24
2019-05-07T07:16:36.585Z,62.24
2019-05-07T07:17:36.573Z,62.55
2019-05-07T07:18:48.402Z,62.48
2019-05-07T07:19:37.557Z,62.99
2019-05-07T07:20:36.549Z,62.58
2019-05-07T07:21:36.531Z,62.68
2019-05-07T07:22:36.518Z,62.76
2019-05-07T07:23:36.518Z,61.93
2019-05-07T07:24:42.416Z,61.93
2019-05-07T07:25:36.483Z,62.35
2019-05-07T07:26:36.471Z,62.04
2019-05-07T07:27:36.487Z,61.91
2019-05-07T07:28:36.471Z,61.88
2019-05-07T07:29:36.437Z,60.85
2019-05-07T07:30:36.432Z,61.06
2019-05-07T07:31:36.425Z,60.96
2019-05-07T07:32:36.424Z,61.06
2019-05-07T07:33:36.405Z,61.13
2019-05-07T07:34:36.381Z,60.93
2019-05-07T07:35:42.835Z,60.83
2019-05-07T07:36:36.360Z,59.30
2019-05-07T07:37:36.356Z,60.35
2019-05-07T07:38:36.359Z,60.75
2019-05-07T07:39:36.331Z,61.26
2019-05-07T07:40:36.324Z,61.36
2019-05-07T07:41:36.301Z,61.36
2019-05-07T07:42:36.307Z,60.42
2019-05-07T07:43:36.300Z,59.39
2019-05-07T07:44:36.272Z,60.11
2019-05-07T07:45:36.262Z,59.70
2019-05-07T07:46:42.463Z,59.30
2019-05-07T07:47:36.249Z,59.70
2019-05-07T07:48:36.239Z,59.12
2019-05-07T07:49:36.224Z,59.53
2019-05-07T07:50:36.202Z,59.60
2019-05-07T07:51:41.146Z,59.60
2019-05-07T07:52:37.178Z,57.84
2019-05-07T07:53:36.195Z,57.63
2019-05-07T07:54:36.175Z,57.63
2019-05-07T07:55:36.148Z,57.84
2019-05-07T07:56:49.051Z,58.25
2019-05-07T07:57:42.712Z,55.97
2019-05-07T07:58:36.110Z,55.49
2019-05-07T07:59:36.152Z,55.38
2019-05-07T08:00:36.110Z,56.68
2019-05-07T08:01:36.080Z,56.79
2019-05-07T08:02:36.075Z,56.89
2019-05-07T08:03:36.052Z,56.48
2019-05-07T08:04:36.057Z,56.99
2019-05-07T08:05:36.030Z,55.26
2019-05-07T08:06:36.046Z,55.13
2019-05-07T08:07:36.009Z,54.79
2019-05-07T08:08:42.445Z,55.54
2019-05-07T08:09:36.017Z,54.79
2019-05-07T08:10:35.976Z,54.39
2019-05-07T08:11:35.966Z,53.98
2019-05-07T08:12:35.966Z,54.90
2019-05-07T08:13:35.942Z,54.82
2019-05-07T08:14:35.944Z,55.33
2019-05-07T08:15:35.917Z,55.51
2019-05-07T08:16:35.909Z,55.20
2019-05-07T08:17:35.894Z,55.30
2019-05-07T08:18:35.942Z,55.20
2019-05-07T08:19:42.916Z,55.51
2019-05-07T08:20:35.859Z,55.61
2019-05-07T08:21:35.854Z,55.00
2019-05-07T08:22:35.840Z,55.71
2019-05-07T08:23:35.831Z,55.51
2019-05-07T08:24:35.830Z,55.71
2019-05-07T08:25:35.806Z,55.07
2019-05-07T08:26:35.796Z,54.77
2019-05-07T08:27:35.799Z,54.87
2019-05-07T08:28:35.781Z,54.67
2019-05-07T08:29:35.769Z,55.18
2019-05-07T08:30:42.030Z,54.44
2019-05-07T08:31:35.734Z,54.24
2019-05-07T08:32:35.727Z,53.62
2019-05-07T08:33:35.713Z,53.92
2019-05-07T08:34:35.712Z,53.72
2019-05-07T08:35:35.688Z,53.72
2019-05-07T08:36:35.686Z,54.03
2019-05-07T08:37:35.670Z,53.59
2019-05-07T08:38:35.659Z,53.39
2019-05-07T08:39:35.656Z,53.42
2019-05-07T08:40:35.644Z,53.22
2019-05-07T08:41:42.290Z,53.52
2019-05-07T08:42:35.614Z,53.22
2019-05-07T08:43:35.612Z,53.42
2019-05-07T08:44:35.598Z,53.31
2019-05-07T08:45:35.690Z,53.01
2019-05-07T08:46:35.567Z,53.62
2019-05-07T08:47:35.552Z,53.22
2019-05-07T08:48:35.553Z,53.22
2019-05-07T08:49:39.696Z,53.19
2019-05-07T08:50:35.532Z,52.88
2019-05-07T08:51:35.512Z,52.88
2019-05-07T08:52:42.009Z,52.07
2019-05-07T08:53:35.483Z,52.15
2019-05-07T08:54:35.506Z,51.61
2019-05-07T08:55:35.461Z,51.53
2019-05-07T08:56:35.451Z,50.82
2019-05-07T08:57:35.441Z,52.15
2019-05-07T08:58:35.431Z,51.15
2019-05-07T08:59:35.438Z,51.66
2019-05-07T09:00:35.418Z,51.66
2019-05-07T09:01:35.393Z,51.13
2019-05-07T09:02:35.381Z,51.66
2019-05-07T09:03:42.753Z,51.74
2019-05-07T09:04:35.365Z,50.72
2019-05-07T09:05:35.372Z,51.64
2019-05-07T09:06:35.360Z,51.94
2019-05-07T09:07:35.357Z,51.13
2019-05-07T09:08:35.316Z,51.33
2019-05-07T09:09:35.306Z,51.74
2019-05-07T09:10:35.312Z,51.64
2019-05-07T09:11:35.295Z,51.53
2019-05-07T09:12:35.275Z,51.43
2019-05-07T09:13:35.273Z,50.62
2019-05-07T09:14:42.349Z,50.72
2019-05-07T09:15:35.253Z,50.90
2019-05-07T09:16:35.245Z,51.10
2019-05-07T09:17:35.214Z,51.18
2019-05-07T09:18:35.221Z,51.51
2019-05-07T09:19:47.217Z,50.19
2019-05-07T09:20:36.198Z,50.72
2019-05-07T09:21:35.178Z,50.72
2019-05-07T09:22:35.158Z,51.43
2019-05-07T09:23:35.158Z,52.02
2019-05-07T09:24:35.144Z,51.28
2019-05-07T09:25:41.648Z,50.78
2019-05-07T09:26:35.125Z,50.67
2019-05-07T09:27:35.113Z,50.78
2019-05-07T09:28:35.139Z,50.55
2019-05-07T09:29:35.097Z,49.94
2019-05-07T09:30:35.133Z,50.34
2019-05-07T09:31:35.059Z,49.63
2019-05-07T09:32:35.067Z,49.25
2019-05-07T09:33:35.059Z,48.61
2019-05-07T09:34:35.033Z,49.22
2019-05-07T09:35:35.031Z,49.33
2019-05-07T09:36:40.060Z,49.61
2019-05-07T09:37:35.013Z,48.61
2019-05-07T09:38:34.982Z,49.55
2019-05-07T09:39:34.969Z,49.15
2019-05-07T09:40:34.968Z,49.65
2019-05-07T09:41:34.962Z,49.65
2019-05-07T09:42:34.940Z,49.22
2019-05-07T09:43:34.926Z,49.00
2019-05-07T09:44:34.921Z,48.80
2019-05-07T09:45:34.908Z,48.28
2019-05-07T09:46:34.909Z,48.19
2019-05-07T09:47:41.805Z,48.57
2019-05-07T09:48:34.869Z,48.27
2019-05-07T09:49:34.858Z,48.67
2019-05-07T09:50:34.855Z,47.45
2019-05-07T09:51:34.874Z,47.55
2019-05-07T09:52:34.821Z,46.94
2019-05-07T09:53:34.807Z,47.02
2019-05-07T09:54:34.799Z,47.33
2019-05-07T09:55:34.793Z,47.33
2019-05-07T09:56:34.789Z,47.13
2019-05-07T09:57:34.959Z,47.33
2019-05-07T09:58:39.793Z,47.33
2019-05-07T09:59:34.739Z,47.43
2019-05-07T10:00:34.751Z,47.13
2019-05-07T10:01:34.743Z,47.20
2019-05-07T10:02:34.708Z,47.41
2019-05-07T10:03:34.691Z,46.59
2019-05-07T10:04:34.683Z,45.58
2019-05-07T10:05:34.671Z,46.35
2019-05-07T10:06:34.672Z,45.13
2019-05-07T10:07:34.644Z,44.34
2019-05-07T10:08:34.637Z,44.65
2019-05-07T10:09:39.648Z,43.91
2019-05-07T10:10:34.614Z,43.73
2019-05-07T10:11:34.635Z,44.13
2019-05-07T10:12:34.604Z,44.12
2019-05-07T10:13:34.583Z,43.30
2019-05-07T10:14:34.579Z,43.53
2019-05-07T10:15:34.610Z,43.81
2019-05-07T10:16:34.546Z,43.84
2019-05-07T10:17:34.546Z,44.52
2019-05-07T10:18:34.540Z,44.20
2019-05-07T10:19:34.542Z,43.89
2019-05-07T10:20:41.976Z,44.22
2019-05-07T10:21:34.495Z,44.34
2019-05-07T10:22:34.490Z,44.54
2019-05-07T10:23:34.475Z,44.95
2019-05-07T10:24:34.471Z,43.61
2019-05-07T10:25:34.446Z,44.54
2019-05-07T10:26:34.446Z,44.24
2019-05-07T10:27:34.475Z,43.12
2019-05-07T10:28:34.410Z,42.49
2019-05-07T10:29:34.433Z,41.78
2019-05-07T10:30:34.396Z,41.68
2019-05-07T10:31:39.401Z,41.48
2019-05-07T10:32:34.385Z,39.73
2019-05-07T10:33:34.354Z,39.75
2019-05-07T10:34:34.350Z,38.43
2019-05-07T10:35:34.333Z,38.15
2019-05-07T10:36:34.340Z,38.45
2019-05-07T10:37:34.337Z,38.43
2019-05-07T10:38:34.296Z,38.13
2019-05-07T10:39:34.285Z,38.45
2019-05-07T10:40:34.294Z,38.15
2019-05-07T10:41:34.296Z,38.57
2019-05-07T10:42:39.286Z,38.66
2019-05-07T10:43:34.255Z,36.85
2019-05-07T10:44:34.227Z,37.76
2019-05-07T10:45:34.221Z,37.66
2019-05-07T10:46:34.208Z,38.05
2019-05-07T10:47:34.210Z,38.25
2019-05-07T10:48:34.180Z,38.13
2019-05-07T10:49:34.169Z,38.74
2019-05-07T10:50:38.920Z,38.43
2019-05-07T10:51:35.146Z,38.42
2019-05-07T10:52:34.149Z,38.21
2019-05-07T10:53:39.152Z,38.42
2019-05-07T10:54:34.113Z,37.89
2019-05-07T10:55:34.105Z,38.60
2019-05-07T10:56:34.095Z,38.70
2019-05-07T10:57:34.110Z,39.31
2019-05-07T10:58:34.067Z,39.21
2019-05-07T10:59:34.058Z,38.50
2019-05-07T11:00:34.046Z,39.11
2019-05-07T11:01:34.037Z,38.32
2019-05-07T11:02:34.025Z,38.91
2019-05-07T11:03:34.028Z,38.10
2019-05-07T11:04:42.782Z,38.01
2019-05-07T11:05:34.990Z,38.12
2019-05-07T11:06:33.978Z,38.01
2019-05-07T11:07:33.970Z,38.12
2019-05-07T11:08:33.974Z,38.52
2019-05-07T11:09:33.944Z,38.82
2019-05-07T11:10:33.932Z,39.21
2019-05-07T11:11:33.920Z,38.50
2019-05-07T11:12:33.914Z,38.99
2019-05-07T11:13:33.917Z,38.46
2019-05-07T11:14:33.888Z,38.26
2019-05-07T11:15:38.900Z,38.46
2019-05-07T11:16:33.865Z,38.26
2019-05-07T11:17:33.852Z,38.16
2019-05-07T11:18:33.856Z,38.46
2019-05-07T11:19:33.839Z,38.37
2019-05-07T11:20:46.481Z,37.65
2019-05-07T11:21:34.840Z,37.86
2019-05-07T11:22:33.796Z,37.57
2019-05-07T11:23:33.798Z,37.98
2019-05-07T11:24:33.785Z,38.06
2019-05-07T11:25:33.767Z,38.26
2019-05-07T11:26:38.830Z,37.45
2019-05-07T11:27:33.750Z,38.06
2019-05-07T11:28:33.740Z,37.54
2019-05-07T11:29:36.489Z,37.54
2019-05-07T11:30:33.709Z,37.64
2019-05-07T11:31:33.711Z,38.04
2019-05-07T11:32:33.685Z,37.13
2019-05-07T11:33:33.682Z,38.02
2019-05-07T11:34:33.667Z,36.71
2019-05-07T11:35:33.654Z,35.88
2019-05-07T11:36:34.386Z,36.72
2019-05-07T11:37:38.651Z,36.72
2019-05-07T11:38:33.632Z,37.23
2019-05-07T11:39:33.607Z,37.54
2019-05-07T11:40:34.840Z,36.74
2019-05-07T11:41:33.585Z,37.21
2019-05-07T11:42:33.569Z,38.13
2019-05-07T11:43:33.580Z,36.99
2019-05-07T11:44:33.547Z,35.88
2019-05-07T11:45:33.535Z,35.36
2019-05-07T11:46:33.534Z,35.44
2019-05-07T11:47:33.518Z,36.17
2019-05-07T11:48:38.538Z,35.36
2019-05-07T11:49:33.490Z,34.57
2019-05-07T11:50:33.482Z,33.88
2019-05-07T11:51:33.640Z,34.69
2019-05-07T11:52:35.753Z,34.27
2019-05-07T11:53:33.443Z,34.88
2019-05-07T11:54:33.450Z,34.86
2019-05-07T11:55:33.424Z,34.35
2019-05-07T11:56:33.411Z,34.25
2019-05-07T11:57:33.401Z,34.13
2019-05-07T11:58:33.390Z,33.21
2019-05-07T11:59:38.412Z,33.50
2019-05-07T12:00:33.369Z,33.29
2019-05-07T12:01:43.867Z,31.56
2019-05-07T12:02:34.358Z,30.24
2019-05-07T12:03:33.343Z,29.44
2019-05-07T12:04:33.366Z,30.88
2019-05-07T12:05:33.393Z,31.39
2019-05-07T12:06:33.303Z,29.86
2019-05-07T12:07:33.290Z,30.07
2019-05-07T12:08:42.804Z,28.96
2019-05-07T12:09:34.277Z,29.27
2019-05-07T12:10:38.281Z,29.98
2019-05-07T12:11:33.242Z,30.07
2019-05-07T12:12:33.230Z,31.29
2019-05-07T12:13:33.236Z,32.39
2019-05-07T12:14:34.970Z,33.41
2019-05-07T12:15:33.196Z,32.92
2019-05-07T12:16:33.186Z,33.22
2019-05-07T12:17:33.177Z,33.44
2019-05-07T12:18:33.163Z,33.95
2019-05-07T12:19:33.226Z,33.63
2019-05-07T12:20:33.141Z,34.13
2019-05-07T12:21:38.161Z,33.64
2019-05-07T12:22:33.124Z,32.75
2019-05-07T12:23:33.343Z,33.05
2019-05-07T12:24:33.109Z,32.67
2019-05-07T12:25:33.087Z,33.12
2019-05-07T12:26:33.074Z,33.02
2019-05-07T12:27:33.067Z,32.32
2019-05-07T12:28:33.068Z,30.80
2019-05-07T12:29:33.082Z,31.49
2019-05-07T12:30:33.034Z,30.76
2019-05-07T12:31:33.639Z,29.74
2019-05-07T12:32:38.036Z,30.24
2019-05-07T12:33:33.020Z,31.38
2019-05-07T12:34:33.015Z,32.39
2019-05-07T12:35:32.978Z,33.02
2019-05-07T12:36:33.007Z,33.44
2019-05-07T12:37:32.974Z,33.54
2019-05-07T12:38:32.961Z,34.03
2019-05-07T12:39:32.933Z,33.83
2019-05-07T12:40:32.937Z,33.93
2019-05-07T12:41:34.023Z,33.73
2019-05-07T12:42:32.909Z,33.53
2019-05-07T12:43:37.951Z,34.03
2019-05-07T12:44:32.909Z,34.12
2019-05-07T12:45:32.873Z,35.24
2019-05-07T12:46:33.366Z,34.94
2019-05-07T12:47:32.839Z,34.64
2019-05-07T12:48:32.846Z,34.13
2019-05-07T12:49:32.816Z,33.83
2019-05-07T12:50:32.819Z,34.35
2019-05-07T12:51:37.216Z,34.05
2019-05-07T12:52:33.797Z,34.27